Time;durP1;ratioP1;P1;durP2;ratioP2;P2;SDS_P1;SDS_P2;PMS_P1;PMS_P2;Temp;Humidity;BMP_temperature;BMP_pressure;BME280_temperature;BME280_humidity;BME280_pressure;Samples;Min_cycle;Max_cycle;Signal;HPM_P1;HPM_P2
2022/08/19 00:02:13;;;;;;;0.77;0.77;;;17.40;99.90;;;;;;4994810;28;20259;-77
2022/08/19 00:04:41;;;;;;;2.97;1.25;;;17.40;99.90;;;;;;4995968;28;20188;-77
2022/08/19 00:07:07;;;;;;;1.10;1.02;;;17.40;99.90;;;;;;4996559;28;20195;-77
2022/08/19 00:09:33;;;;;;;2.33;1.05;;;17.40;99.90;;;;;;4996625;28;20160;-77
2022/08/19 00:11:59;;;;;;;1.23;1.13;;;17.40;99.90;;;;;;4994981;28;20156;-77
2022/08/19 00:14:27;;;;;;;1.27;1.20;;;17.30;99.90;;;;;;4994420;28;20621;-78
2022/08/19 00:16:54;;;;;;;3.80;1.58;;;17.30;99.90;;;;;;4994429;28;20595;-77
2022/08/19 00:19:20;;;;;;;1.27;1.10;;;17.30;99.90;;;;;;4994284;28;20191;-76
2022/08/19 00:21:46;;;;;;;9.45;2.58;;;17.30;99.90;;;;;;4995825;28;20160;-77
2022/08/19 00:24:14;;;;;;;0.85;0.85;;;17.30;99.90;;;;;;4995664;28;20164;-77
2022/08/19 00:26:42;;;;;;;1.13;1.10;;;17.20;99.90;;;;;;5005792;28;20566;-76
2022/08/19 00:29:10;;;;;;;2.03;1.52;;;17.10;99.90;;;;;;5032917;28;20162;-76
2022/08/19 00:31:35;;;;;;;1.08;0.95;;;17.10;99.90;;;;;;5033523;28;20589;-76
2022/08/19 00:34:02;;;;;;;1.15;1.00;;;17.10;99.90;;;;;;5033798;28;20170;-77
2022/08/19 00:36:32;;;;;;;1.35;1.10;;;17.00;99.90;;;;;;5033370;28;20182;-77
2022/08/19 00:38:58;;;;;;;1.60;1.50;;;16.90;99.90;;;;;;5035151;28;20242;-77
2022/08/19 00:41:27;;;;;;;1.10;1.00;;;16.80;99.90;;;;;;5026264;28;20206;-77
2022/08/19 00:43:59;;;;;;;5.78;1.70;;;16.80;99.90;;;;;;4994980;28;20196;-76
2022/08/19 00:46:25;;;;;;;0.75;0.73;;;16.80;99.90;;;;;;5005073;28;20215;-76
2022/08/19 00:48:51;;;;;;;1.02;0.98;;;16.70;99.90;;;;;;4993726;28;20537;-76
2022/08/19 00:51:17;;;;;;;1.67;1.38;;;16.80;99.90;;;;;;5026918;28;20164;-76
2022/08/19 00:53:43;;;;;;;2.17;1.58;;;16.70;99.90;;;;;;4995171;28;20676;-76
2022/08/19 00:56:10;;;;;;;0.85;0.85;;;16.70;99.90;;;;;;4994159;28;20226;-75
2022/08/19 00:58:36;;;;;;;1.17;1.08;;;16.70;99.90;;;;;;4993630;28;20195;-76
2022/08/19 01:01:04;;;;;;;1.08;1.05;;;16.60;99.90;;;;;;4993264;28;20195;-76
2022/08/19 01:03:30;;;;;;;0.82;0.70;;;16.60;99.90;;;;;;4993691;28;20200;-76
2022/08/19 01:05:59;;;;;;;1.45;1.35;;;16.70;99.90;;;;;;4994603;28;20203;-75
2022/08/19 01:08:25;;;;;;;1.80;1.65;;;16.60;99.90;;;;;;4993195;28;20560;-77
2022/08/19 01:10:59;;;;;;;2.03;1.65;;;16.60;99.90;;;;;;4993684;28;20207;-75
2022/08/19 01:13:29;;;;;;;2.20;1.88;;;16.70;99.90;;;;;;4994865;28;20662;-76
2022/08/19 01:16:06;;;;;;;1.60;1.50;;;16.70;99.90;;;;;;4993807;28;20194;-76
2022/08/19 01:18:36;;;;;;;5.65;2.10;;;16.60;99.90;;;;;;4994995;28;20540;-77
2022/08/19 01:21:09;;;;;;;2.90;1.73;;;16.60;99.90;;;;;;4995186;28;20273;-76
2022/08/19 01:23:43;;;;;;;2.45;1.77;;;16.60;99.90;;;;;;4993463;28;20203;-76
2022/08/19 01:26:20;;;;;;;2.55;1.88;;;16.50;99.90;;;;;;4994487;28;20675;-76
2022/08/19 01:28:48;;;;;;;3.20;1.80;;;16.40;99.90;;;;;;4994493;28;20201;-77
2022/08/19 01:31:18;;;;;;;3.45;2.13;;;16.40;99.90;;;;;;4993228;28;20199;-76
2022/08/19 01:33:44;;;;;;;2.15;1.77;;;16.40;99.90;;;;;;4994413;28;20191;-76
2022/08/19 01:36:15;;;;;;;3.03;1.98;;;16.40;99.90;;;;;;4992863;28;20205;-76
2022/08/19 01:38:43;;;;;;;2.35;1.67;;;16.40;99.90;;;;;;4995798;28;20551;-76
2022/08/19 01:41:10;;;;;;;2.33;2.13;;;16.30;99.90;;;;;;4998593;28;20187;-77
2022/08/19 01:43:37;;;;;;;2.17;1.95;;;16.30;99.90;;;;;;4999297;28;20619;-76
2022/08/19 01:46:03;;;;;;;2.42;2.17;;;16.30;99.90;;;;;;5005439;28;20199;-76
2022/08/19 01:48:34;;;;;;;7.32;2.78;;;16.30;99.90;;;;;;4998575;28;20237;-76
2022/08/19 01:51:00;;;;;;;2.00;1.77;;;16.30;99.90;;;;;;4997437;28;20199;-76
2022/08/19 01:53:26;;;;;;;3.30;2.17;;;16.20;99.90;;;;;;4996198;28;20199;-76
2022/08/19 01:55:51;;;;;;;2.15;1.77;;;16.30;99.90;;;;;;4996558;28;20192;-76
2022/08/19 01:58:22;;;;;;;2.13;1.92;;;16.30;99.90;;;;;;4996644;28;20616;-76
2022/08/19 02:00:48;;;;;;;2.05;1.83;;;16.30;99.90;;;;;;4997065;28;20732;-76
2022/08/19 02:03:15;;;;;;;5.25;2.42;;;16.30;99.90;;;;;;4997906;28;20211;-76
2022/08/19 02:05:42;;;;;;;1.65;1.55;;;16.20;99.90;;;;;;4997498;28;20192;-76
2022/08/19 02:08:08;;;;;;;2.20;1.90;;;16.20;99.90;;;;;;4996437;28;20300;-76
2022/08/19 02:10:40;;;;;;;3.22;2.15;;;16.10;99.90;;;;;;4996401;28;20195;-76
2022/08/19 02:13:06;;;;;;;1.90;1.70;;;16.10;99.90;;;;;;4997167;28;20238;-76
2022/08/19 02:15:32;;;;;;;1.88;1.38;;;16.20;99.90;;;;;;4996007;28;20195;-76
2022/08/19 02:17:58;;;;;;;1.85;1.75;;;16.20;99.90;;;;;;4997131;28;20235;-76
2022/08/19 02:20:24;;;;;;;1.90;1.35;;;16.20;99.90;;;;;;5028934;28;20227;-76
2022/08/19 02:22:50;;;;;;;1.70;1.58;;;16.20;99.90;;;;;;4995790;28;20238;-76
2022/08/19 02:25:16;;;;;;;2.65;1.40;;;16.10;99.90;;;;;;4997387;28;20278;-75
2022/08/19 02:27:42;;;;;;;1.88;1.70;;;16.10;99.90;;;;;;4995879;28;20302;-76
2022/08/19 02:30:12;;;;;;;2.08;1.88;;;16.10;99.90;;;;;;4996116;28;20697;-75
2022/08/19 02:32:38;;;;;;;0.70;0.70;;;16.00;99.90;;;;;;4997118;28;20246;-76
2022/08/19 02:35:05;;;;;;;1.45;1.33;;;16.00;99.90;;;;;;5010318;28;20666;-76
2022/08/19 02:40:17;;;;;;;1.50;1.40;;;16.00;99.90;;;;;;5016531;28;20264;-75
2022/08/19 02:42:44;;;;;;;2.83;2.38;;;16.00;99.90;;;;;;5015206;28;20205;-76
2022/08/19 02:45:11;;;;;;;2.15;1.95;;;16.10;99.90;;;;;;5011739;28;20287;-75
2022/08/19 02:47:37;;;;;;;2.67;2.15;;;16.10;99.90;;;;;;4995620;28;20211;-76
2022/08/19 02:50:05;;;;;;;3.55;2.25;;;16.10;99.90;;;;;;4995879;28;20681;-76
2022/08/19 02:52:32;;;;;;;1.70;1.60;;;16.20;99.90;;;;;;4995176;28;20282;-76
2022/08/19 02:54:58;;;;;;;2.30;2.08;;;16.30;99.90;;;;;;4996753;28;20655;-76
2022/08/19 02:57:24;;;;;;;2.17;1.98;;;16.20;99.90;;;;;;4996796;28;20241;-75
2022/08/19 02:59:50;;;;;;;1.70;1.58;;;16.20;99.90;;;;;;4996343;28;20249;-76
2022/08/19 03:02:16;;;;;;;2.15;1.95;;;16.20;99.90;;;;;;5005760;28;20242;-75
2022/08/19 03:04:42;;;;;;;3.35;2.72;;;16.10;99.90;;;;;;5015446;28;20591;-75
2022/08/19 03:07:09;;;;;;;3.53;2.22;;;16.10;99.90;;;;;;5014525;28;20566;-75
2022/08/19 03:09:37;;;;;;;3.30;2.20;;;16.00;99.90;;;;;;5014949;28;20688;-76
2022/08/19 03:12:04;;;;;;;1.70;1.58;;;16.00;99.90;;;;;;5014739;28;20195;-76
2022/08/19 03:14:32;;;;;;;2.83;2.35;;;16.00;99.90;;;;;;5014396;28;20613;-76
2022/08/19 03:16:57;;;;;;;3.17;2.08;;;15.90;99.90;;;;;;5015461;28;20231;-77
2022/08/19 03:19:23;;;;;;;1.70;1.60;;;15.90;99.90;;;;;;5014764;28;20209;-75
2022/08/19 03:21:50;;;;;;;1.52;1.42;;;15.80;99.90;;;;;;5014302;28;20202;-76
2022/08/19 03:24:18;;;;;;;3.13;2.50;;;15.90;99.90;;;;;;5014807;28;20199;-76
2022/08/19 03:26:51;;;;;;;2.65;2.17;;;15.90;99.90;;;;;;5015821;28;20207;-75
2022/08/19 03:29:18;;;;;;;1.20;1.10;;;16.00;99.90;;;;;;5016041;28;20281;-75
2022/08/19 03:31:44;;;;;;;3.08;2.20;;;16.20;99.90;;;;;;4997831;28;20246;-75
2022/08/19 03:34:13;;;;;;;2.95;2.05;;;16.20;99.90;;;;;;5027833;28;20234;-75
2022/08/19 03:36:42;;;;;;;1.65;1.55;;;16.30;99.90;;;;;;4996652;28;20645;-75
2022/08/19 03:39:08;;;;;;;4.35;2.40;;;16.30;99.90;;;;;;5028125;28;20322;-75
2022/08/19 03:41:38;;;;;;;3.70;2.67;;;16.30;99.90;;;;;;5027450;28;20196;-75
2022/08/19 03:44:04;;;;;;;1.80;1.70;;;16.30;99.90;;;;;;5027613;28;20588;-76
2022/08/19 03:46:33;;;;;;;1.98;1.88;;;16.30;99.90;;;;;;5027776;28;20199;-76
2022/08/19 03:49:03;;;;;;;5.45;1.73;;;16.30;99.90;;;;;;4996177;28;20278;-76
2022/08/19 03:51:35;;;;;;;1.67;1.15;;;16.40;99.90;;;;;;4996369;28;20191;-76
2022/08/19 03:54:07;;;;;;;2.33;1.52;;;16.40;99.90;;;;;;4995517;28;20195;-75
2022/08/19 03:56:35;;;;;;;2.03;1.85;;;16.30;99.90;;;;;;4995479;28;20199;-75
2022/08/19 03:59:32;;;;;;;6.43;1.38;;;16.20;99.90;;;;;;4994795;28;20203;-75
2022/08/19 04:02:02;;;;;;;1.63;1.50;;;16.20;99.90;;;;;;4993724;28;20210;-76
2022/08/19 04:04:29;;;;;;;1.70;1.52;;;16.20;99.90;;;;;;4994844;28;20254;-76
2022/08/19 04:06:58;;;;;;;1.67;1.25;;;16.30;99.90;;;;;;4995329;28;20207;-75
2022/08/19 04:09:30;;;;;;;0.90;0.90;;;16.20;99.90;;;;;;4995558;28;20225;-76
2022/08/19 04:11:57;;;;;;;1.63;1.52;;;16.20;99.90;;;;;;5002552;28;20226;-75
2022/08/19 04:14:28;;;;;;;1.15;1.08;;;16.30;99.90;;;;;;5013652;28;20230;-75
2022/08/19 04:16:53;;;;;;;1.35;1.25;;;16.40;99.90;;;;;;5015309;28;20721;-76
2022/08/19 04:19:20;;;;;;;1.40;1.30;;;16.50;99.90;;;;;;5013881;28;20248;-76
2022/08/19 04:21:51;;;;;;;2.05;1.88;;;16.50;99.90;;;;;;5014277;28;20225;-76
2022/08/19 04:24:18;;;;;;;17.67;1.77;;;16.60;99.90;;;;;;5013800;28;20213;-75
2022/08/19 04:26:44;;;;;;;4.70;1.58;;;16.70;99.90;;;;;;5014921;28;20217;-76
2022/08/19 04:29:24;;;;;;;1.38;1.27;;;16.90;99.90;;;;;;5015031;28;20194;-76
2022/08/19 04:31:53;;;;;;;1.83;1.38;;;17.00;99.90;;;;;;4995894;28;20249;-73
2022/08/19 04:34:22;;;;;;;1.15;1.00;;;17.10;99.90;;;;;;5026603;28;20208;-73
2022/08/19 04:36:50;;;;;;;1.15;1.05;;;17.10;99.90;;;;;;4994586;28;20196;-74
2022/08/19 04:39:21;;;;;;;3.60;1.90;;;17.20;99.90;;;;;;5026487;28;20226;-75
2022/08/19 04:44:35;;;;;;;0.90;0.85;;;17.40;99.90;;;;;;5014213;28;20563;-75
2022/08/19 04:47:04;;;;;;;1.17;1.08;;;17.50;99.90;;;;;;5014654;28;20620;-75
2022/08/19 04:49:30;;;;;;;1.45;1.30;;;17.50;99.90;;;;;;5013573;28;20261;-75
2022/08/19 04:51:56;;;;;;;3.38;2.45;;;17.60;99.90;;;;;;5013350;28;20568;-75
2022/08/19 04:54:26;;;;;;;2.03;1.80;;;17.60;99.90;;;;;;5014213;28;20183;-74
2022/08/19 04:56:53;;;;;;;2.10;1.67;;;17.70;99.90;;;;;;5014615;28;20218;-76
2022/08/19 04:59:20;;;;;;;1.40;1.30;;;17.70;99.90;;;;;;5013746;28;20225;-74
2022/08/19 05:01:49;;;;;;;2.13;1.73;;;17.70;99.90;;;;;;5013100;28;20226;-74
2022/08/19 05:04:18;;;;;;;1.23;1.13;;;17.60;99.90;;;;;;5013194;28;20207;-74
2022/08/19 05:06:47;;;;;;;2.88;1.92;;;17.70;99.90;;;;;;5012649;28;20704;-76
2022/08/19 05:09:14;;;;;;;1.55;1.45;;;17.70;99.90;;;;;;5013968;28;20204;-75
2022/08/19 05:11:40;;;;;;;5.05;2.15;;;17.70;99.90;;;;;;5013144;28;20632;-74
2022/08/19 05:14:10;;;;;;;3.38;2.30;;;17.80;99.90;;;;;;5013022;28;20333;-74
2022/08/19 05:16:36;;;;;;;2.05;1.85;;;17.80;99.90;;;;;;5013342;28;20313;-74
2022/08/19 05:24:34;;;;;;;4.45;2.97;;;18.00;99.90;;;;;;5014079;28;20205;-76
2022/08/19 05:27:02;;;;;;;5.10;2.33;;;18.10;99.90;;;;;;5013940;28;20237;-71
2022/08/19 05:29:29;;;;;;;4.32;2.95;;;18.30;99.90;;;;;;5013731;28;20662;-70
2022/08/19 05:31:59;;;;;;;4.05;3.08;;;18.70;99.90;;;;;;4993262;28;20192;-70
2022/08/19 05:34:28;;;;;;;1.67;1.58;;;19.00;99.90;;;;;;5025676;28;20199;-69
2022/08/19 05:36:58;;;;;;;1.52;1.42;;;19.20;99.90;;;;;;5025571;28;20574;-70
2022/08/19 05:39:27;;;;;;;2.40;2.15;;;19.50;99.90;;;;;;4993939;28;20195;-69
2022/08/19 05:41:59;;;;;;;6.65;2.70;;;19.70;99.90;;;;;;5033161;28;20209;-69
2022/08/19 05:44:27;;;;;;;5.00;3.20;;;19.80;99.90;;;;;;5013352;28;20199;-70
2022/08/19 05:46:53;;;;;;;2.08;1.83;;;20.00;99.90;;;;;;5013009;28;20206;-70
2022/08/19 05:49:21;;;;;;;8.77;3.25;;;20.20;99.90;;;;;;5013068;28;20191;-70
2022/08/19 05:51:47;;;;;;;2.85;2.42;;;20.40;99.90;;;;;;5013482;28;20193;-70
2022/08/19 05:54:13;;;;;;;3.22;2.22;;;20.40;99.90;;;;;;5012451;28;20566;-69
2022/08/19 05:56:41;;;;;;;2.95;2.22;;;20.40;99.90;;;;;;5013653;28;20203;-70
2022/08/19 05:59:10;;;;;;;4.07;2.85;;;20.30;99.90;;;;;;5013529;28;20237;-70
2022/08/19 06:01:39;;;;;;;3.20;2.55;;;20.10;99.90;;;;;;5012822;28;20252;-71
2022/08/19 06:04:06;;;;;;;5.45;2.60;;;20.10;99.90;;;;;;5012925;28;20230;-70
2022/08/19 06:06:33;;;;;;;4.88;2.97;;;20.00;99.90;;;;;;5011559;28;20206;-71
2022/08/19 06:09:04;;;;;;;2.53;2.03;;;19.90;99.90;;;;;;5013308;28;20202;-71
2022/08/19 06:11:35;;;;;;;4.55;2.58;;;20.20;99.90;;;;;;5012692;28;20191;-71
2022/08/19 06:14:04;;;;;;;3.30;2.58;;;20.50;99.90;;;;;;5012952;28;20195;-71
2022/08/19 06:16:33;;;;;;;2.63;2.33;;;20.60;99.90;;;;;;5011382;28;20241;-70
2022/08/19 06:19:01;;;;;;;3.83;2.70;;;20.70;99.90;;;;;;5013193;28;20272;-70
2022/08/19 06:21:28;;;;;;;3.30;2.08;;;20.80;99.90;;;;;;5011296;28;20199;-70
2022/08/19 06:23:57;;;;;;;2.30;2.10;;;21.00;99.90;;;;;;5012710;28;20202;-70
2022/08/19 06:26:24;;;;;;;1.83;1.63;;;21.30;99.90;;;;;;5016023;28;20650;-70
2022/08/19 06:28:50;;;;;;;1.88;1.75;;;21.50;99.90;;;;;;5016273;28;20642;-70
2022/08/19 06:31:27;;;;;;;2.17;1.67;;;21.40;99.90;;;;;;5014744;28;20205;-70
2022/08/19 06:33:53;;;;;;;2.72;1.63;;;21.50;99.90;;;;;;5014911;28;20282;-70
2022/08/19 06:36:31;;;;;;;2.35;1.95;;;21.60;99.90;;;;;;5014693;28;20206;-70
2022/08/19 06:38:58;;;;;;;3.03;2.03;;;21.70;99.90;;;;;;5016072;28;20205;-71
2022/08/19 06:41:27;;;;;;;1.63;1.52;;;21.40;99.90;;;;;;5016124;28;20330;-70
2022/08/19 06:43:54;;;;;;;2.00;1.35;;;21.50;99.90;;;;;;5015850;28;20191;-70
2022/08/19 06:46:21;;;;;;;2.78;2.20;;;21.60;99.90;;;;;;5015183;28;20313;-71
2022/08/19 06:48:47;;;;;;;2.47;2.22;;;21.80;99.90;;;;;;5015809;28;20195;-70
2022/08/19 06:51:18;;;;;;;1.77;1.38;;;22.00;99.90;;;;;;5015657;28;20206;-70
2022/08/19 06:53:51;;;;;;;3.50;2.65;;;21.90;99.90;;;;;;5015699;28;20653;-70
2022/08/19 06:56:20;;;;;;;4.07;1.80;;;21.70;99.90;;;;;;5014753;28;20596;-70
2022/08/19 06:58:52;;;;;;;2.88;1.98;;;21.60;99.90;;;;;;5015737;28;20223;-70
2022/08/19 07:01:19;;;;;;;3.00;2.00;;;21.50;99.90;;;;;;5015344;28;20277;-70
2022/08/19 07:03:46;;;;;;;3.65;2.20;;;21.40;99.90;;;;;;5015675;28;20197;-70
2022/08/19 07:06:17;;;;;;;3.25;2.13;;;21.10;99.90;;;;;;5014140;28;20688;-70
2022/08/19 07:08:44;;;;;;;2.47;1.88;;;21.00;99.90;;;;;;5015108;28;20206;-70
2022/08/19 07:11:12;;;;;;;3.15;2.25;;;21.00;99.90;;;;;;5014752;28;20707;-70
2022/08/19 07:13:39;;;;;;;3.13;2.42;;;21.30;99.90;;;;;;5015132;28;20278;-70
2022/08/19 07:16:16;;;;;;;2.03;1.63;;;21.70;99.90;;;;;;5014380;28;20676;-71
2022/08/19 07:18:42;;;;;;;1.35;1.25;;;22.00;99.90;;;;;;5013753;28;20226;-70
2022/08/19 07:21:14;;;;;;;3.63;2.38;;;22.10;99.90;;;;;;5015215;28;20199;-70
2022/08/19 07:23:41;;;;;;;3.72;2.10;;;22.00;99.90;;;;;;5015037;28;20677;-70
2022/08/19 07:26:19;;;;;;;2.25;2.05;;;21.70;99.90;;;;;;5015151;28;20194;-70
2022/08/19 07:28:46;;;;;;;3.00;1.73;;;21.50;99.90;;;;;;5014829;28;20218;-70
2022/08/19 07:31:14;;;;;;;3.13;2.10;;;21.30;99.90;;;;;;5013666;28;20282;-70
2022/08/19 07:33:42;;;;;;;16.17;1.83;;;21.50;99.90;;;;;;5014531;28;20244;-70
2022/08/19 07:36:13;;;;;;;1.90;1.67;;;21.70;99.90;;;;;;5014847;28;20218;-70
2022/08/19 07:38:42;;;;;;;21.85;2.33;;;21.70;99.90;;;;;;5014522;28;20283;-70
2022/08/19 07:41:12;;;;;;;2.75;1.90;;;21.80;99.90;;;;;;5014705;28;20191;-69
2022/08/19 07:43:38;;;;;;;2.97;1.88;;;21.70;99.90;;;;;;5014661;28;20700;-70
2022/08/19 07:46:04;;;;;;;2.20;1.67;;;21.80;99.90;;;;;;5014811;28;20194;-69
2022/08/19 07:48:31;;;;;;;1.80;1.70;;;21.90;99.90;;;;;;5012966;28;20215;-70
2022/08/19 07:51:02;;;;;;;2.33;1.48;;;22.00;99.90;;;;;;5014500;28;20195;-70
2022/08/19 07:53:30;;;;;;;3.00;1.45;;;21.90;99.90;;;;;;5014675;28;20256;-70
2022/08/19 07:55:59;;;;;;;2.67;2.42;;;22.00;99.90;;;;;;5014845;28;20194;-71
2022/08/19 07:58:25;;;;;;;2.97;2.47;;;21.90;99.90;;;;;;5010570;28;20203;-70
2022/08/19 08:00:51;;;;;;;2.10;1.65;;;21.80;99.90;;;;;;4995187;28;20199;-70
2022/08/19 08:09:10;;;;;;;2.25;1.75;;;21.80;99.90;;;;;;4995133;28;20195;-70
2022/08/19 08:11:39;;;;;;;1.65;1.40;;;21.80;99.90;;;;;;4994753;28;20603;-70
2022/08/19 08:14:06;;;;;;;4.50;2.40;;;21.90;99.90;;;;;;4994792;28;20191;-71
2022/08/19 08:16:38;;;;;;;2.97;2.17;;;22.30;99.90;;;;;;5009341;28;20239;-70
2022/08/19 08:19:17;;;;;;;3.67;1.80;;;22.50;99.90;;;;;;4994650;28;20187;-71
2022/08/19 08:21:43;;;;;;;3.53;1.67;;;22.50;99.90;;;;;;5009135;28;20199;-71
2022/08/19 08:24:09;;;;;;;6.70;3.30;;;22.60;99.90;;;;;;4994387;28;20319;-71
2022/08/19 08:26:35;;;;;;;3.78;2.65;;;22.60;99.90;;;;;;5007016;28;20690;-70
2022/08/19 08:29:01;;;;;;;2.85;2.20;;;22.60;99.90;;;;;;4993211;28;20200;-71
2022/08/19 08:31:28;;;;;;;3.03;1.73;;;22.60;99.90;;;;;;5007461;28;20199;-70
2022/08/19 08:33:54;;;;;;;2.83;2.17;;;22.70;99.90;;;;;;5013062;28;20222;-71
2022/08/19 08:36:45;;;;;;;2.38;1.55;;;22.50;99.90;;;;;;5012732;28;20191;-71
2022/08/19 08:39:16;;;;;;;4.80;2.17;;;22.40;99.90;;;;;;5012976;28;20669;-71
2022/08/19 08:42:07;;;;;;;1.67;1.58;;;22.40;99.90;;;;;;5012440;28;20559;-71
2022/08/19 08:44:36;;;;;;;2.25;1.88;;;22.60;99.90;;;;;;5012414;28;20206;-72
2022/08/19 08:47:10;;;;;;;2.50;2.17;;;22.90;99.90;;;;;;5013201;28;20297;-70
2022/08/19 08:49:56;;;;;;;1.58;1.42;;;23.20;99.90;;;;;;5012345;28;20206;-71
2022/08/19 08:52:26;;;;;;;4.85;2.58;;;23.50;99.90;;;;;;5012160;28;20673;-70
2022/08/19 08:54:57;;;;;;;2.83;1.83;;;23.40;99.90;;;;;;5012688;28;20214;-71
2022/08/19 08:57:58;;;;;;;2.55;1.70;;;23.40;99.90;;;;;;5012605;28;20198;-71
2022/08/19 09:00:29;;;;;;;2.22;1.80;;;23.70;99.90;;;;;;5013347;28;20774;-70
2022/08/19 09:03:01;;;;;;;1.58;1.40;;;23.80;99.90;;;;;;5012440;28;20293;-70
2022/08/19 09:05:48;;;;;;;4.10;2.45;;;24.20;99.90;;;;;;5013583;28;20198;-70
2022/08/19 09:09:03;;;;;;;3.88;2.30;;;24.00;99.90;;;;;;5013656;28;20724;-70
2022/08/19 09:11:37;;;;;;;3.85;2.08;;;24.00;99.90;;;;;;4982835;28;20211;-72
2022/08/19 09:14:42;;;;;;;2.78;2.45;;;24.00;99.90;;;;;;5013528;28;20198;-70
2022/08/19 09:17:09;;;;;;;1.45;1.35;;;24.30;99.90;;;;;;5004305;28;20240;-71
2022/08/19 09:19:48;;;;;;;4.70;2.42;;;24.50;99.90;;;;;;5013761;28;20753;-70
2022/08/19 09:22:14;;;;;;;2.45;2.00;;;24.40;99.90;;;;;;5013501;28;20273;-70
2022/08/19 09:24:40;;;;;;;3.60;2.40;;;24.70;99.90;;;;;;5011914;28;20237;-71
2022/08/19 09:27:06;;;;;;;6.60;2.30;;;24.90;99.90;;;;;;5012028;28;20214;-70
2022/08/19 09:29:32;;;;;;;5.10;2.65;;;24.80;99.90;;;;;;5012377;28;20549;-70
2022/08/19 09:31:57;;;;;;;4.20;2.45;;;24.60;99.90;;;;;;5012215;28;20565;-70
2022/08/19 09:34:23;;;;;;;2.50;1.67;;;24.70;99.90;;;;;;5011959;28;20190;-71
2022/08/19 09:36:54;;;;;;;2.33;1.88;;;24.70;99.90;;;;;;5013260;28;20217;-71
2022/08/19 09:39:21;;;;;;;3.45;1.45;;;24.60;99.90;;;;;;5012955;28;20565;-71
2022/08/19 09:41:46;;;;;;;25.20;2.55;;;24.70;99.90;;;;;;5013245;28;20261;-71
2022/08/19 09:44:13;;;;;;;5.85;1.75;;;24.80;99.90;;;;;;5013333;28;20599;-71
2022/08/19 09:46:41;;;;;;;1.98;1.60;;;24.50;99.90;;;;;;5012800;28;20688;-70
2022/08/19 09:49:07;;;;;;;2.95;2.45;;;24.30;99.90;;;;;;5011884;28;20739;-71
2022/08/19 09:51:33;;;;;;;4.63;1.63;;;24.20;99.90;;;;;;5011881;28;20190;-71
2022/08/19 09:54:02;;;;;;;3.15;1.50;;;24.10;99.90;;;;;;5012001;28;20199;-71
2022/08/19 09:56:30;;;;;;;4.43;1.90;;;24.10;99.90;;;;;;5011558;28;20199;-71
2022/08/19 09:58:59;;;;;;;5.13;3.00;;;24.30;99.90;;;;;;5012101;28;20191;-71
2022/08/19 10:01:29;;;;;;;2.63;2.15;;;24.50;99.90;;;;;;5016434;28;20299;-70
2022/08/19 10:03:59;;;;;;;3.40;2.22;;;24.50;99.90;;;;;;5016603;28;20218;-70
2022/08/19 10:06:33;;;;;;;1.98;1.27;;;24.50;99.90;;;;;;5016644;28;20248;-71
2022/08/19 10:09:02;;;;;;;1.35;1.25;;;24.40;99.90;;;;;;5015739;28;20631;-70
2022/08/19 10:11:28;;;;;;;3.22;2.28;;;24.30;99.90;;;;;;5016450;28;20195;-70
2022/08/19 10:13:57;;;;;;;2.72;1.95;;;24.20;99.90;;;;;;5015224;28;20663;-70
2022/08/19 10:16:24;;;;;;;2.53;1.83;;;24.20;99.90;;;;;;5016025;28;20214;-70
2022/08/19 10:18:50;;;;;;;2.47;1.70;;;24.40;99.90;;;;;;5011539;28;20207;-70
2022/08/19 10:21:20;;;;;;;2.13;1.58;;;24.50;99.90;;;;;;4996784;28;20195;-71
2022/08/19 10:23:50;;;;;;;2.95;2.53;;;24.80;99.90;;;;;;5008134;28;20575;-71
2022/08/19 10:26:22;;;;;;;5.80;2.65;;;25.40;99.90;;;;;;5016226;28;20191;-70
2022/08/19 10:28:51;;;;;;;2.47;1.50;;;25.90;99.90;;;;;;5015853;28;20697;-71
2022/08/19 10:31:25;;;;;;;2.50;1.80;;;26.20;99.90;;;;;;5016068;28;20274;-71
2022/08/19 10:33:57;;;;;;;2.67;2.20;;;26.20;99.90;;;;;;5016208;28;20586;-70
2022/08/19 10:36:31;;;;;;;1.23;1.13;;;26.20;99.90;;;;;;5015893;28;20653;-71
2022/08/19 10:39:01;;;;;;;3.05;2.22;;;26.00;99.90;;;;;;5014566;28;20378;-71
2022/08/19 10:41:30;;;;;;;2.08;1.73;;;25.90;99.90;;;;;;5014365;28;20198;-70
2022/08/19 10:44:00;;;;;;;1.98;1.33;;;25.70;99.90;;;;;;5014695;28;20206;-71
2022/08/19 10:46:27;;;;;;;5.35;2.10;;;25.60;99.90;;;;;;5015049;28;20203;-70
2022/08/19 10:48:57;;;;;;;6.25;1.45;;;25.80;99.90;;;;;;5014303;28;20215;-71
2022/08/19 10:54:07;;;;;;;2.10;1.90;;;26.20;99.90;;;;;;5015862;28;20740;-70
2022/08/19 10:56:51;;;;;;;2.97;1.90;;;26.60;99.90;;;;;;5015478;28;20273;-71
2022/08/19 10:59:23;;;;;;;2.60;1.80;;;26.60;99.90;;;;;;5015432;28;20210;-71
2022/08/19 11:01:50;;;;;;;1.77;1.40;;;26.50;99.90;;;;;;5015401;28;20190;-71
2022/08/19 11:04:18;;;;;;;1.88;1.67;;;26.60;99.90;;;;;;5015377;28;20253;-71
2022/08/19 11:06:48;;;;;;;2.97;2.10;;;26.60;99.90;;;;;;5015542;28;20548;-71
2022/08/19 11:09:16;;;;;;;2.10;1.60;;;26.90;99.90;;;;;;5014276;28;20194;-71
2022/08/19 11:11:42;;;;;;;3.60;1.95;;;27.00;99.90;;;;;;5014119;28;20265;-72
2022/08/19 11:14:10;;;;;;;3.58;2.25;;;26.90;99.90;;;;;;5014347;28;20712;-72
2022/08/19 11:16:38;;;;;;;3.10;1.85;;;26.80;99.90;;;;;;4999378;28;20239;-71
2022/08/19 11:19:04;;;;;;;1.90;1.65;;;26.40;99.90;;;;;;5000638;28;20280;-70
2022/08/19 11:21:41;;;;;;;4.22;2.45;;;26.70;99.90;;;;;;5014892;28;20222;-70
2022/08/19 11:24:12;;;;;;;2.33;1.98;;;26.90;99.90;;;;;;5013754;28;20237;-70
2022/08/19 11:26:41;;;;;;;1.73;1.40;;;27.10;99.90;;;;;;5013908;28;20649;-71
2022/08/19 11:29:11;;;;;;;1.80;1.58;;;27.00;99.90;;;;;;5015119;28;20191;-71
2022/08/19 11:31:41;;;;;;;1.40;1.30;;;26.60;99.90;;;;;;5013737;28;20190;-71
2022/08/19 11:34:16;;;;;;;2.45;2.25;;;26.40;99.90;;;;;;5013937;28;20337;-71
2022/08/19 11:36:45;;;;;;;4.18;2.20;;;26.40;99.90;;;;;;5013490;28;20194;-71
2022/08/19 11:39:13;;;;;;;2.45;1.88;;;26.60;99.90;;;;;;5015022;28;20198;-71
2022/08/19 11:41:39;;;;;;;2.30;1.70;;;27.10;99.90;;;;;;5014099;28;20695;-71
2022/08/19 11:44:07;;;;;;;2.38;1.65;;;27.00;99.90;;;;;;5014749;28;20273;-71
2022/08/19 11:46:34;;;;;;;2.42;1.63;;;27.00;99.90;;;;;;5010829;28;20249;-70
2022/08/19 11:49:02;;;;;;;1.98;1.30;;;27.40;99.90;;;;;;4995006;28;20683;-71
2022/08/19 11:51:29;;;;;;;3.10;2.08;;;27.80;99.90;;;;;;4993727;28;20581;-71
2022/08/19 11:53:57;;;;;;;1.98;1.67;;;27.60;99.90;;;;;;4993473;28;20195;-70
2022/08/19 11:56:23;;;;;;;3.45;1.45;;;27.00;99.90;;;;;;4993283;28;20257;-71
2022/08/19 11:58:50;;;;;;;2.53;1.88;;;27.20;99.90;;;;;;4993803;28;20206;-70
2022/08/19 12:01:19;;;;;;;1.13;1.02;;;27.70;99.90;;;;;;5004775;28;20673;-71
2022/08/19 12:03:47;;;;;;;2.45;1.83;;;28.10;99.90;;;;;;5014336;28;20194;-71
2022/08/19 12:06:17;;;;;;;3.28;1.65;;;28.10;99.90;;;;;;5014225;28;20277;-70
2022/08/19 12:09:00;;;;;;;4.57;2.58;;;28.10;99.90;;;;;;5013971;28;20210;-71
2022/08/19 12:11:42;;;;;;;2.97;2.58;;;28.10;99.90;;;;;;5013213;28;20190;-71
2022/08/19 12:14:16;;;;;;;3.10;1.60;;;28.00;99.90;;;;;;5014481;28;20221;-70
2022/08/19 12:17:01;;;;;;;2.30;1.52;;;27.80;99.90;;;;;;5012919;28;20677;-72
2022/08/19 12:19:46;;;;;;;5.57;1.88;;;27.60;99.90;;;;;;5013411;28;20293;-72
2022/08/19 12:22:37;;;;;;;1.70;1.42;;;27.40;99.90;;;;;;5013854;28;20202;-71
2022/08/19 12:25:51;;;;;;;2.05;1.77;;;27.70;99.90;;;;;;5014893;28;20198;-71
2022/08/19 12:28:27;;;;;;;4.20;1.38;;;27.70;99.90;;;;;;4941564;28;20236;-72
2022/08/19 12:30:59;;;;;;;3.10;2.03;;;27.30;99.90;;;;;;5003435;28;20707;-72
2022/08/19 12:33:32;;;;;;;5.28;2.38;;;26.90;99.90;;;;;;5026417;28;20209;-72
2022/08/19 12:36:15;;;;;;;3.65;2.42;;;26.90;99.90;;;;;;5032417;28;20200;-70
2022/08/19 12:38:41;;;;;;;3.10;2.25;;;26.60;99.90;;;;;;5037400;28;20732;-70
2022/08/19 12:41:09;;;;;;;2.75;1.92;;;26.40;99.90;;;;;;5013651;28;20284;-70
2022/08/19 12:43:36;;;;;;;3.55;2.20;;;26.60;99.90;;;;;;5013390;28;20681;-71
2022/08/19 12:46:04;;;;;;;2.67;1.63;;;27.00;99.90;;;;;;5002225;28;20580;-70
2022/08/19 12:48:30;;;;;;;6.43;2.10;;;27.50;99.90;;;;;;4992310;28;20218;-71
2022/08/19 12:50:56;;;;;;;4.20;2.33;;;27.90;99.90;;;;;;5025339;28;20650;-71
2022/08/19 12:53:22;;;;;;;4.07;1.85;;;27.80;99.90;;;;;;5025241;28;20202;-71
2022/08/19 12:55:48;;;;;;;2.70;1.73;;;27.90;99.90;;;;;;5025245;28;20231;-70
2022/08/19 12:58:13;;;;;;;1.42;1.33;;;28.20;99.90;;;;;;4993851;28;20203;-71
2022/08/19 13:00:40;;;;;;;2.08;1.63;;;28.50;99.90;;;;;;4993274;28;20241;-71
2022/08/19 13:03:06;;;;;;;4.05;1.52;;;28.90;99.90;;;;;;5025157;28;20231;-71
2022/08/19 13:05:34;;;;;;;3.10;1.55;;;29.20;99.90;;;;;;4992111;28;20240;-71
2022/08/19 13:07:59;;;;;;;1.63;1.10;;;29.40;99.90;;;;;;5001585;28;20701;-71
2022/08/19 13:10:35;;;;;;;3.03;1.73;;;29.20;99.90;;;;;;5013076;28;20198;-72
2022/08/19 13:13:17;;;;;;;3.85;1.48;;;28.70;99.90;;;;;;5014394;28;20260;-72
2022/08/19 13:15:47;;;;;;;3.92;2.13;;;28.30;99.90;;;;;;5012928;28;20292;-72
2022/08/19 13:18:19;;;;;;;1.77;1.38;;;27.60;99.90;;;;;;5012168;28;20266;-72
2022/08/19 13:21:19;;;;;;;;;;;;;;;;;;;;;